sensor_id;sensor_type;location;lat;lon;timestamp;pressure;altitude;pressure_sealevel;temperature;humidity
63554;BME280;49699;48.072;7.800;2022-12-20T00:00:49;99980.59;;;1.42;95.77
63554;BME280;49699;48.072;7.800;2022-12-20T00:03:14;99977.16;;;1.43;95.73
63554;BME280;49699;48.072;7.800;2022-12-20T00:05:40;99982.22;;;1.46;95.62
63554;BME280;49699;48.072;7.800;2022-12-20T00:08:06;99982.19;;;1.49;95.73
63554;BME280;49699;48.072;7.800;2022-12-20T00:10:41;99975.31;;;1.54;95.67
63554;BME280;49699;48.072;7.800;2022-12-20T00:13:07;99975.25;;;1.60;95.98
63554;BME280;49699;48.072;7.800;2022-12-20T00:15:32;99971.69;;;1.69;95.89
63554;BME280;49699;48.072;7.800;2022-12-20T00:17:58;99967.31;;;1.77;95.66
63554;BME280;49699;48.072;7.800;2022-12-20T00:20:24;99970.63;;;1.84;95.88
63554;BME280;49699;48.072;7.800;2022-12-20T00:22:49;99961.13;;;1.90;95.58
63554;BME280;49699;48.072;7.800;2022-12-20T00:25:14;99964.50;;;1.95;95.72
63554;BME280;49699;48.072;7.800;2022-12-20T00:27:40;99953.31;;;1.98;95.40
63554;BME280;49699;48.072;7.800;2022-12-20T00:30:05;99954.13;;;2.01;95.50
63554;BME280;49699;48.072;7.800;2022-12-20T00:32:31;99952.38;;;2.05;95.55
63554;BME280;49699;48.072;7.800;2022-12-20T00:34:56;99957.41;;;2.11;95.53
63554;BME280;49699;48.072;7.800;2022-12-20T00:37:23;99952.16;;;2.19;95.59
63554;BME280;49699;48.072;7.800;2022-12-20T00:39:48;99945.22;;;2.24;95.23
63554;BME280;49699;48.072;7.800;2022-12-20T00:42:13;99951.13;;;2.30;95.20
63554;BME280;49699;48.072;7.800;2022-12-20T00:44:39;99941.59;;;2.35;95.12
63554;BME280;49699;48.072;7.800;2022-12-20T00:47:05;99948.31;;;2.46;95.59
63554;BME280;49699;48.072;7.800;2022-12-20T00:49:30;99937.06;;;2.51;95.15
63554;BME280;49699;48.072;7.800;2022-12-20T00:51:55;99934.34;;;2.60;95.13
63554;BME280;49699;48.072;7.800;2022-12-20T00:54:20;99940.97;;;2.72;94.98
63554;BME280;49699;48.072;7.800;2022-12-20T00:56:46;99938.09;;;2.89;94.85
63554;BME280;49699;48.072;7.800;2022-12-20T00:59:12;99930.97;;;3.04;94.81
63554;BME280;49699;48.072;7.800;2022-12-20T01:01:37;99936.75;;;3.16;94.18
63554;BME280;49699;48.072;7.800;2022-12-20T01:04:02;99933.94;;;3.26;93.97
63554;BME280;49699;48.072;7.800;2022-12-20T01:06:28;99929.50;;;3.34;93.83
63554;BME280;49699;48.072;7.800;2022-12-20T01:08:54;99925.16;;;3.38;93.58
63554;BME280;49699;48.072;7.800;2022-12-20T01:11:20;99925.91;;;3.41;93.68
63554;BME280;49699;48.072;7.800;2022-12-20T01:13:47;99926.78;;;3.40;93.32
63554;BME280;49699;48.072;7.800;2022-12-20T01:16:14;99921.72;;;3.39;93.15
63554;BME280;49699;48.072;7.800;2022-12-20T01:18:40;99917.50;;;3.35;93.54
63554;BME280;49699;48.072;7.800;2022-12-20T01:21:07;99929.59;;;3.30;93.31
63554;BME280;49699;48.072;7.800;2022-12-20T01:23:33;99929.81;;;3.21;93.00
63554;BME280;49699;48.072;7.800;2022-12-20T01:25:59;99944.63;;;3.06;93.36
63554;BME280;49699;48.072;7.800;2022-12-20T01:28:24;99938.84;;;2.95;93.28
63554;BME280;49699;48.072;7.800;2022-12-20T01:30:50;99942.53;;;2.82;93.22
63554;BME280;49699;48.072;7.800;2022-12-20T01:33:15;99944.41;;;2.72;93.77
63554;BME280;49699;48.072;7.800;2022-12-20T01:35:40;99934.28;;;2.65;93.93
63554;BME280;49699;48.072;7.800;2022-12-20T01:38:06;99930.94;;;2.60;94.47
63554;BME280;49699;48.072;7.800;2022-12-20T01:40:31;99930.09;;;2.58;94.57
63554;BME280;49699;48.072;7.800;2022-12-20T01:42:57;99925.84;;;2.57;94.30
63554;BME280;49699;48.072;7.800;2022-12-20T01:45:26;99930.97;;;2.57;94.60
63554;BME280;49699;48.072;7.800;2022-12-20T01:47:52;99927.59;;;2.55;94.75
63554;BME280;49699;48.072;7.800;2022-12-20T01:50:18;99918.16;;;2.55;94.37
63554;BME280;49699;48.072;7.800;2022-12-20T01:52:43;99912.13;;;2.56;94.72
63554;BME280;49699;48.072;7.800;2022-12-20T01:55:23;99914.69;;;2.58;94.82
63554;BME280;49699;48.072;7.800;2022-12-20T01:58:00;99909.53;;;2.58;94.82
63554;BME280;49699;48.072;7.800;2022-12-20T02:00:27;99910.41;;;2.57;94.74
63554;BME280;49699;48.072;7.800;2022-12-20T02:02:52;99909.56;;;2.56;94.86
63554;BME280;49699;48.072;7.800;2022-12-20T02:05:19;99904.44;;;2.56;94.62
63554;BME280;49699;48.072;7.800;2022-12-20T02:07:45;99899.25;;;2.58;95.00
63554;BME280;49699;48.072;7.800;2022-12-20T02:10:14;99892.41;;;2.58;95.09
63554;BME280;49699;48.072;7.800;2022-12-20T02:12:41;99885.53;;;2.60;95.05
63554;BME280;49699;48.072;7.800;2022-12-20T02:20:18;99880.34;;;2.63;94.66
63554;BME280;49699;48.072;7.800;2022-12-20T02:30:18;99872.69;;;2.60;94.98
63554;BME280;49699;48.072;7.800;2022-12-20T02:35:20;99878.72;;;2.58;94.96
63554;BME280;49699;48.072;7.800;2022-12-20T02:37:49;99871.84;;;2.58;94.79
63554;BME280;49699;48.072;7.800;2022-12-20T02:40:16;99872.69;;;2.59;94.92
63554;BME280;49699;48.072;7.800;2022-12-20T02:42:44;99871.81;;;2.60;95.26
63554;BME280;49699;48.072;7.800;2022-12-20T02:45:10;99879.47;;;2.63;94.75
63554;BME280;49699;48.072;7.800;2022-12-20T02:47:49;99876.00;;;2.67;94.83
63554;BME280;49699;48.072;7.800;2022-12-20T02:50:20;99853.72;;;2.67;95.00
63554;BME280;49699;48.072;7.800;2022-12-20T02:52:46;99847.69;;;2.68;94.69
63554;BME280;49699;48.072;7.800;2022-12-20T02:55:15;99857.97;;;2.68;94.84
63554;BME280;49699;48.072;7.800;2022-12-20T03:00:10;99854.59;;;2.66;94.97
63554;BME280;49699;48.072;7.800;2022-12-20T03:02:36;99850.28;;;2.67;94.80
63554;BME280;49699;48.072;7.800;2022-12-20T03:05:22;99845.16;;;2.67;94.83
63554;BME280;49699;48.072;7.800;2022-12-20T03:07:48;99840.88;;;2.66;95.05
63554;BME280;49699;48.072;7.800;2022-12-20T03:10:16;99838.31;;;2.66;95.23
63554;BME280;49699;48.072;7.800;2022-12-20T03:12:42;99835.75;;;2.66;95.28
63554;BME280;49699;48.072;7.800;2022-12-20T03:15:07;99822.03;;;2.67;94.98
63554;BME280;49699;48.072;7.800;2022-12-20T03:17:33;99816.03;;;2.66;94.63
63554;BME280;49699;48.072;7.800;2022-12-20T03:19:59;99819.44;;;2.67;95.20
63554;BME280;49699;48.072;7.800;2022-12-20T03:22:24;99817.72;;;2.67;94.82
63554;BME280;49699;48.072;7.800;2022-12-20T03:24:49;99816.78;;;2.70;95.14
63554;BME280;49699;48.072;7.800;2022-12-20T03:27:14;99818.50;;;2.71;95.16
63554;BME280;49699;48.072;7.800;2022-12-20T03:29:41;99813.38;;;2.69;95.00
63554;BME280;49699;48.072;7.800;2022-12-20T03:32:06;99821.09;;;2.69;94.89
63554;BME280;49699;48.072;7.800;2022-12-20T03:34:31;99829.63;;;2.71;95.13
63554;BME280;49699;48.072;7.800;2022-12-20T03:36:58;99818.47;;;2.72;94.84
63554;BME280;49699;48.072;7.800;2022-12-20T03:39:24;99833.84;;;2.74;95.22
63554;BME280;49699;48.072;7.800;2022-12-20T03:41:51;99830.41;;;2.75;94.54
63554;BME280;49699;48.072;7.800;2022-12-20T03:44:17;99830.41;;;2.75;95.03
63554;BME280;49699;48.072;7.800;2022-12-20T03:46:42;99828.72;;;2.74;94.97
63554;BME280;49699;48.072;7.800;2022-12-20T03:49:08;99831.25;;;2.75;94.92
63554;BME280;49699;48.072;7.800;2022-12-20T03:51:41;99832.09;;;2.76;94.91
63554;BME280;49699;48.072;7.800;2022-12-20T03:54:07;99832.09;;;2.77;94.80
63554;BME280;49699;48.072;7.800;2022-12-20T03:56:59;99816.66;;;2.77;94.65
63554;BME280;49699;48.072;7.800;2022-12-20T03:59:25;99821.78;;;2.79;94.97
63554;BME280;49699;48.072;7.800;2022-12-20T04:01:51;99820.03;;;2.79;94.63
63554;BME280;49699;48.072;7.800;2022-12-20T04:04:16;99814.06;;;2.79;94.56
63554;BME280;49699;48.072;7.800;2022-12-20T04:06:42;99819.16;;;2.81;94.60
63554;BME280;49699;48.072;7.800;2022-12-20T04:09:08;99817.47;;;2.79;94.64
63554;BME280;49699;48.072;7.800;2022-12-20T04:11:40;99814.06;;;2.79;95.01
63554;BME280;49699;48.072;7.800;2022-12-20T04:14:12;99814.94;;;2.78;94.47
63554;BME280;49699;48.072;7.800;2022-12-20T04:16:37;99820.06;;;2.78;94.62
63554;BME280;49699;48.072;7.800;2022-12-20T04:19:04;99815.81;;;2.77;95.02
63554;BME280;49699;48.072;7.800;2022-12-20T04:21:35;99809.81;;;2.76;94.77
63554;BME280;49699;48.072;7.800;2022-12-20T04:24:02;99808.97;;;2.76;94.98
63554;BME280;49699;48.072;7.800;2022-12-20T04:26:39;99810.66;;;2.77;94.68
63554;BME280;49699;48.072;7.800;2022-12-20T04:29:04;99802.09;;;2.78;94.90
63554;BME280;49699;48.072;7.800;2022-12-20T04:31:30;99802.09;;;2.78;95.03
63554;BME280;49699;48.072;7.800;2022-12-20T04:33:55;99803.78;;;2.79;95.03
63554;BME280;49699;48.072;7.800;2022-12-20T04:36:20;99790.03;;;2.82;94.69
63554;BME280;49699;48.072;7.800;2022-12-20T04:38:48;99787.41;;;2.83;95.04
63554;BME280;49699;48.072;7.800;2022-12-20T04:41:13;99790.81;;;2.85;95.14
63554;BME280;49699;48.072;7.800;2022-12-20T04:43:50;99782.16;;;2.88;94.66
63554;BME280;49699;48.072;7.800;2022-12-20T04:46:17;99789.84;;;2.89;94.68
63554;BME280;49699;48.072;7.800;2022-12-20T04:48:43;99795.00;;;2.89;94.64
63554;BME280;49699;48.072;7.800;2022-12-20T04:51:09;99799.25;;;2.90;94.68
63554;BME280;49699;48.072;7.800;2022-12-20T04:53:34;99786.41;;;2.90;94.65
63554;BME280;49699;48.072;7.800;2022-12-20T04:58:46;99786.41;;;2.90;94.48
63554;BME280;49699;48.072;7.800;2022-12-20T05:01:11;99788.13;;;2.90;94.51
63554;BME280;49699;48.072;7.800;2022-12-20T05:03:44;99783.81;;;2.90;94.60
63554;BME280;49699;48.072;7.800;2022-12-20T05:06:10;99774.41;;;2.91;94.57
63554;BME280;49699;48.072;7.800;2022-12-20T05:08:38;99782.13;;;2.89;94.97
63554;BME280;49699;48.072;7.800;2022-12-20T05:11:04;99779.59;;;2.88;94.51
63554;BME280;49699;48.072;7.800;2022-12-20T05:13:30;99766.81;;;2.86;94.69
63554;BME280;49699;48.072;7.800;2022-12-20T05:15:56;99753.94;;;2.86;94.83
63554;BME280;49699;48.072;7.800;2022-12-20T05:18:25;99754.00;;;2.83;94.83
63554;BME280;49699;48.072;7.800;2022-12-20T05:21:03;99762.59;;;2.82;94.68
63554;BME280;49699;48.072;7.800;2022-12-20T05:23:50;99764.28;;;2.83;94.93
63554;BME280;49699;48.072;7.800;2022-12-20T05:26:47;99768.63;;;2.81;94.95
63554;BME280;49699;48.072;7.800;2022-12-20T05:29:13;99762.63;;;2.81;95.18
63554;BME280;49699;48.072;7.800;2022-12-20T05:31:41;99766.88;;;2.82;95.23
63554;BME280;49699;48.072;7.800;2022-12-20T05:34:06;99761.75;;;2.82;94.70
63554;BME280;49699;48.072;7.800;2022-12-20T05:36:34;99769.47;;;2.82;94.80
63554;BME280;49699;48.072;7.800;2022-12-20T05:39:02;99773.69;;;2.84;94.83
63554;BME280;49699;48.072;7.800;2022-12-20T05:41:27;99767.72;;;2.84;95.27
63554;BME280;49699;48.072;7.800;2022-12-20T05:43:53;99752.28;;;2.84;95.15
63554;BME280;49699;48.072;7.800;2022-12-20T05:46:18;99759.09;;;2.86;95.25
63554;BME280;49699;48.072;7.800;2022-12-20T05:48:54;99774.41;;;2.89;95.09
63554;BME280;49699;48.072;7.800;2022-12-20T05:51:19;99747.84;;;2.90;95.21
63554;BME280;49699;48.072;7.800;2022-12-20T05:54:01;99758.09;;;2.92;94.92
63554;BME280;49699;48.072;7.800;2022-12-20T05:56:39;99757.25;;;2.91;94.78
63554;BME280;49699;48.072;7.800;2022-12-20T05:59:04;99751.22;;;2.92;94.50
63554;BME280;49699;48.072;7.800;2022-12-20T06:01:30;99756.44;;;2.89;94.89
63554;BME280;49699;48.072;7.800;2022-12-20T06:03:58;99748.69;;;2.91;94.98
63554;BME280;49699;48.072;7.800;2022-12-20T06:06:23;99746.97;;;2.91;95.10
63554;BME280;49699;48.072;7.800;2022-12-20T06:08:49;99755.56;;;2.90;94.85
63554;BME280;49699;48.072;7.800;2022-12-20T06:11:26;99746.97;;;2.91;95.01
63554;BME280;49699;48.072;7.800;2022-12-20T06:13:58;99746.97;;;2.91;94.83
63554;BME280;49699;48.072;7.800;2022-12-20T06:16:24;99748.66;;;2.92;94.83
63554;BME280;49699;48.072;7.800;2022-12-20T06:18:52;99742.66;;;2.92;94.87
63554;BME280;49699;48.072;7.800;2022-12-20T06:21:17;99743.47;;;2.94;95.03
63554;BME280;49699;48.072;7.800;2022-12-20T06:23:43;99741.72;;;2.96;94.87
63554;BME280;49699;48.072;7.800;2022-12-20T06:26:11;99755.41;;;2.98;94.59
63554;BME280;49699;48.072;7.800;2022-12-20T06:28:46;99769.94;;;2.99;94.85
63554;BME280;49699;48.072;7.800;2022-12-20T06:31:19;99766.47;;;3.01;94.87
63554;BME280;49699;48.072;7.800;2022-12-20T06:33:48;99770.69;;;3.04;95.01
63554;BME280;49699;48.072;7.800;2022-12-20T06:36:15;99765.56;;;3.04;94.78
63554;BME280;49699;48.072;7.800;2022-12-20T06:38:41;99759.50;;;3.05;95.05
63554;BME280;49699;48.072;7.800;2022-12-20T06:41:06;99757.78;;;3.05;94.60
63554;BME280;49699;48.072;7.800;2022-12-20T06:43:32;99767.19;;;3.06;94.82
63554;BME280;49699;48.072;7.800;2022-12-20T06:45:57;99755.22;;;3.05;94.86
63554;BME280;49699;48.072;7.800;2022-12-20T06:48:22;99755.16;;;3.08;94.71
63554;BME280;49699;48.072;7.800;2022-12-20T06:50:48;99754.28;;;3.09;94.53
63554;BME280;49699;48.072;7.800;2022-12-20T06:53:14;99752.50;;;3.11;94.84
63554;BME280;49699;48.072;7.800;2022-12-20T06:55:39;99763.63;;;3.13;94.52
63554;BME280;49699;48.072;7.800;2022-12-20T06:58:05;99751.59;;;3.14;94.69
63554;BME280;49699;48.072;7.800;2022-12-20T07:00:31;99751.56;;;3.16;94.84
63554;BME280;49699;48.072;7.800;2022-12-20T07:02:56;99755.00;;;3.16;94.81
63554;BME280;49699;48.072;7.800;2022-12-20T07:05:21;99744.66;;;3.18;94.65
63554;BME280;49699;48.072;7.800;2022-12-20T07:07:47;99754.97;;;3.18;94.60
63554;BME280;49699;48.072;7.800;2022-12-20T07:10:12;99762.69;;;3.18;94.62
63554;BME280;49699;48.072;7.800;2022-12-20T07:12:37;99752.31;;;3.21;94.38
63554;BME280;49699;48.072;7.800;2022-12-20T07:15:03;99748.03;;;3.21;94.32
63554;BME280;49699;48.072;7.800;2022-12-20T07:17:29;99744.59;;;3.21;94.27
63554;BME280;49699;48.072;7.800;2022-12-20T07:19:54;99730.94;;;3.19;94.22
63554;BME280;49699;48.072;7.800;2022-12-20T07:22:19;99742.06;;;3.19;94.27
63554;BME280;49699;48.072;7.800;2022-12-20T07:24:45;99742.88;;;3.21;94.29
63554;BME280;49699;48.072;7.800;2022-12-20T07:27:10;99740.25;;;3.23;94.33
63554;BME280;49699;48.072;7.800;2022-12-20T07:29:35;99731.66;;;3.24;94.30
63554;BME280;49699;48.072;7.800;2022-12-20T07:32:04;99729.03;;;3.25;94.24
63554;BME280;49699;48.072;7.800;2022-12-20T07:34:29;99745.31;;;3.26;94.34
63554;BME280;49699;48.072;7.800;2022-12-20T07:36:55;99751.22;;;3.31;94.66
63554;BME280;49699;48.072;7.800;2022-12-20T07:39:20;99744.28;;;3.34;94.27
63554;BME280;49699;48.072;7.800;2022-12-20T07:41:45;99736.50;;;3.37;94.33
63554;BME280;49699;48.072;7.800;2022-12-20T07:44:14;99723.50;;;3.42;94.12
63554;BME280;49699;48.072;7.800;2022-12-20T07:46:40;99714.84;;;3.46;94.50
63554;BME280;49699;48.072;7.800;2022-12-20T07:49:05;99710.47;;;3.49;94.04
63554;BME280;49699;48.072;7.800;2022-12-20T07:51:32;99701.81;;;3.52;94.50
63554;BME280;49699;48.072;7.800;2022-12-20T07:54:00;99701.78;;;3.54;94.12
63554;BME280;49699;48.072;7.800;2022-12-20T07:56:27;99710.28;;;3.57;94.40
63554;BME280;49699;48.072;7.800;2022-12-20T07:58:54;99718.75;;;3.61;94.27
63554;BME280;49699;48.072;7.800;2022-12-20T08:01:22;99717.00;;;3.63;94.09
63554;BME280;49699;48.072;7.800;2022-12-20T08:03:48;99723.78;;;3.65;94.07
63554;BME280;49699;48.072;7.800;2022-12-20T08:06:15;99713.47;;;3.67;94.00
63554;BME280;49699;48.072;7.800;2022-12-20T08:08:42;99716.00;;;3.68;93.90
63554;BME280;49699;48.072;7.800;2022-12-20T08:11:09;99712.47;;;3.72;94.08
63554;BME280;49699;48.072;7.800;2022-12-20T08:13:35;99714.16;;;3.73;93.88
63554;BME280;49699;48.072;7.800;2022-12-20T08:16:01;99713.28;;;3.74;94.12
63554;BME280;49699;48.072;7.800;2022-12-20T08:18:26;99720.06;;;3.77;93.73
63554;BME280;49699;48.072;7.800;2022-12-20T08:20:51;99717.47;;;3.77;93.65
63554;BME280;49699;48.072;7.800;2022-12-20T08:23:17;99711.41;;;3.79;93.96
63554;BME280;49699;48.072;7.800;2022-12-20T08:25:43;99704.47;;;3.83;93.62
63554;BME280;49699;48.072;7.800;2022-12-20T08:28:09;99706.06;;;3.87;93.76
63554;BME280;49699;48.072;7.800;2022-12-20T08:30:34;99692.25;;;3.91;93.67
63554;BME280;49699;48.072;7.800;2022-12-20T08:33:00;99698.81;;;4.01;93.53
63554;BME280;49699;48.072;7.800;2022-12-20T08:35:28;99697.63;;;4.13;93.03
63554;BME280;49699;48.072;7.800;2022-12-20T08:37:53;99688.75;;;4.25;92.99
63554;BME280;49699;48.072;7.800;2022-12-20T08:40:19;99694.41;;;4.37;92.64
63554;BME280;49699;48.072;7.800;2022-12-20T08:42:44;99707.69;;;4.53;92.30
63554;BME280;49699;48.072;7.800;2022-12-20T08:45:09;99696.91;;;4.68;92.19
63554;BME280;49699;48.072;7.800;2022-12-20T08:47:35;99685.97;;;4.89;91.69
63554;BME280;49699;48.072;7.800;2022-12-20T08:50:01;99685.41;;;5.08;90.85
63554;BME280;49699;48.072;7.800;2022-12-20T08:52:27;99676.25;;;5.26;90.52
63554;BME280;49699;48.072;7.800;2022-12-20T08:54:53;99686.91;;;5.41;89.59
63554;BME280;49699;48.072;7.800;2022-12-20T08:57:18;99676.97;;;5.55;89.16
63554;BME280;49699;48.072;7.800;2022-12-20T08:59:43;99682.59;;;5.68;89.15
63554;BME280;49699;48.072;7.800;2022-12-20T09:02:08;99682.06;;;5.83;88.04
63554;BME280;49699;48.072;7.800;2022-12-20T09:04:34;99683.41;;;5.95;87.73
63554;BME280;49699;48.072;7.800;2022-12-20T09:06:59;99687.34;;;6.05;87.55
63554;BME280;49699;48.072;7.800;2022-12-20T09:09:24;99685.34;;;6.13;87.26
63554;BME280;49699;48.072;7.800;2022-12-20T09:11:49;99678.22;;;6.20;87.08
63554;BME280;49699;48.072;7.800;2022-12-20T09:14:15;99676.38;;;6.23;86.99
63554;BME280;49699;48.072;7.800;2022-12-20T09:16:40;99667.59;;;6.27;87.01
63554;BME280;49699;48.072;7.800;2022-12-20T09:19:05;99665.69;;;6.33;87.02
63554;BME280;49699;48.072;7.800;2022-12-20T09:21:31;99669.84;;;6.37;86.80
63554;BME280;49699;48.072;7.800;2022-12-20T09:23:56;99667.84;;;6.45;86.78
63554;BME280;49699;48.072;7.800;2022-12-20T09:26:22;99666.53;;;6.56;86.30
63554;BME280;49699;48.072;7.800;2022-12-20T09:28:48;99663.47;;;6.69;86.12
63554;BME280;49699;48.072;7.800;2022-12-20T09:31:15;99658.75;;;6.80;85.58
63554;BME280;49699;48.072;7.800;2022-12-20T09:33:41;99670.41;;;6.90;85.32
63554;BME280;49699;48.072;7.800;2022-12-20T09:36:09;99677.09;;;6.95;85.33
63554;BME280;49699;48.072;7.800;2022-12-20T09:38:34;99668.44;;;6.96;85.27
63554;BME280;49699;48.072;7.800;2022-12-20T09:41:01;99664.03;;;6.99;85.79
63554;BME280;49699;48.072;7.800;2022-12-20T09:43:27;99662.22;;;7.01;85.68
63554;BME280;49699;48.072;7.800;2022-12-20T09:45:54;99669.06;;;7.02;85.27
63554;BME280;49699;48.072;7.800;2022-12-20T09:48:25;99673.47;;;7.00;85.79
63554;BME280;49699;48.072;7.800;2022-12-20T09:53:32;99663.31;;;6.95;85.86
63554;BME280;49699;48.072;7.800;2022-12-20T09:56:08;99660.78;;;6.93;86.13
63554;BME280;49699;48.072;7.800;2022-12-20T10:01:21;99659.88;;;6.94;86.32
63554;BME280;49699;48.072;7.800;2022-12-20T10:03:48;99659.94;;;6.93;86.59
63554;BME280;49699;48.072;7.800;2022-12-20T10:06:17;99663.50;;;6.90;86.53
63554;BME280;49699;48.072;7.800;2022-12-20T10:08:50;99654.88;;;6.90;86.76
63554;BME280;49699;48.072;7.800;2022-12-20T10:13:54;99665.06;;;6.94;86.49
63554;BME280;49699;48.072;7.800;2022-12-20T10:24:00;99647.69;;;6.98;86.86
63554;BME280;49699;48.072;7.800;2022-12-20T10:26:26;99648.53;;;6.99;86.76
63554;BME280;49699;48.072;7.800;2022-12-20T10:28:52;99653.75;;;6.97;86.70
63554;BME280;49699;48.072;7.800;2022-12-20T10:31:18;99646.75;;;6.99;87.05
63554;BME280;49699;48.072;7.800;2022-12-20T10:33:44;99641.56;;;6.99;86.89
63554;BME280;49699;48.072;7.800;2022-12-20T10:38:45;99634.41;;;7.06;86.72
63554;BME280;49699;48.072;7.800;2022-12-20T10:41:15;99626.47;;;7.10;86.22
63554;BME280;49699;48.072;7.800;2022-12-20T10:43:43;99634.75;;;7.18;86.49
63554;BME280;49699;48.072;7.800;2022-12-20T10:46:08;99628.50;;;7.24;85.96
63554;BME280;49699;48.072;7.800;2022-12-20T10:48:35;99628.25;;;7.30;85.70
63554;BME280;49699;48.072;7.800;2022-12-20T10:53:27;99599.38;;;7.39;85.38
63554;BME280;49699;48.072;7.800;2022-12-20T10:55:53;99592.25;;;7.44;85.16
63554;BME280;49699;48.072;7.800;2022-12-20T11:00:47;99575.28;;;7.57;84.71
63554;BME280;49699;48.072;7.800;2022-12-20T11:03:20;99568.03;;;7.65;84.98
63554;BME280;49699;48.072;7.800;2022-12-20T11:05:56;99577.72;;;7.81;84.07
63554;BME280;49699;48.072;7.800;2022-12-20T11:08:22;99574.44;;;7.96;83.69
63554;BME280;49699;48.072;7.800;2022-12-20T11:10:48;99574.66;;;8.10;83.16
63554;BME280;49699;48.072;7.800;2022-12-20T11:13:21;99562.06;;;8.21;83.04
63554;BME280;49699;48.072;7.800;2022-12-20T11:15:48;99557.97;;;8.36;82.49
63554;BME280;49699;48.072;7.800;2022-12-20T11:18:23;99559.69;;;8.54;82.01
63554;BME280;49699;48.072;7.800;2022-12-20T11:23:55;99562.22;;;8.92;80.87
63554;BME280;49699;48.072;7.800;2022-12-20T11:50:06;99532.41;;;9.16;79.88
63554;BME280;49699;48.072;7.800;2022-12-20T11:52:40;99525.63;;;9.14;80.39
63554;BME280;49699;48.072;7.800;2022-12-20T11:55:17;99523.13;;;9.12;80.24
63554;BME280;49699;48.072;7.800;2022-12-20T11:57:50;99516.19;;;9.13;80.48
63554;BME280;49699;48.072;7.800;2022-12-20T12:00:16;99509.81;;;9.18;80.46
63554;BME280;49699;48.072;7.800;2022-12-20T12:02:43;99520.50;;;9.29;80.18
63554;BME280;49699;48.072;7.800;2022-12-20T12:05:22;99523.53;;;9.37;79.89
63554;BME280;49699;48.072;7.800;2022-12-20T12:07:52;99512.69;;;9.47;79.58
63554;BME280;49699;48.072;7.800;2022-12-20T12:10:22;99513.19;;;9.53;79.36
63554;BME280;49699;48.072;7.800;2022-12-20T12:20:54;99486.47;;;10.16;78.18
63554;BME280;49699;48.072;7.800;2022-12-20T12:23:30;99479.91;;;10.40;77.09
63554;BME280;49699;48.072;7.800;2022-12-20T12:25:59;99484.81;;;10.60;76.34
63554;BME280;49699;48.072;7.800;2022-12-20T12:28:26;99487.38;;;10.76;76.19
63554;BME280;49699;48.072;7.800;2022-12-20T12:31:03;99478.44;;;10.96;75.22
63554;BME280;49699;48.072;7.800;2022-12-20T12:33:40;99474.56;;;11.17;74.46
63554;BME280;49699;48.072;7.800;2022-12-20T12:38:55;99461.44;;;11.47;72.70
63554;BME280;49699;48.072;7.800;2022-12-20T12:44:04;99454.94;;;11.68;71.02
63554;BME280;49699;48.072;7.800;2022-12-20T12:46:47;99447.56;;;11.89;69.38
63554;BME280;49699;48.072;7.800;2022-12-20T12:49:19;99449.03;;;12.07;68.55
63554;BME280;49699;48.072;7.800;2022-12-20T12:51:50;99433.50;;;12.18;67.41
63554;BME280;49699;48.072;7.800;2022-12-20T12:56:48;99416.91;;;12.34;66.26
63554;BME280;49699;48.072;7.800;2022-12-20T13:02:47;99435.50;;;12.55;65.42
63554;BME280;49699;48.072;7.800;2022-12-20T13:05:28;99420.63;;;12.69;64.72
63554;BME280;49699;48.072;7.800;2022-12-20T13:07:46;99424.41;;;12.78;64.42
63554;BME280;49699;48.072;7.800;2022-12-20T13:13:01;99418.25;;;12.92;63.71
63554;BME280;49699;48.072;7.800;2022-12-20T13:17:53;99414.00;;;13.16;62.76
63554;BME280;49699;48.072;7.800;2022-12-20T13:20:38;99407.81;;;13.30;62.20
63554;BME280;49699;48.072;7.800;2022-12-20T13:25:32;99386.88;;;13.55;60.86
63554;BME280;49699;48.072;7.800;2022-12-20T13:30:45;99382.16;;;13.60;60.41
63554;BME280;49699;48.072;7.800;2022-12-20T13:33:18;99388.09;;;13.62;60.11
63554;BME280;49699;48.072;7.800;2022-12-20T13:35:53;99395.53;;;13.68;59.77
63554;BME280;49699;48.072;7.800;2022-12-20T13:41:18;99394.78;;;13.79;59.11
63554;BME280;49699;48.072;7.800;2022-12-20T13:43:45;99397.38;;;13.79;58.71
63554;BME280;49699;48.072;7.800;2022-12-20T13:46:12;99396.78;;;13.75;58.87
63554;BME280;49699;48.072;7.800;2022-12-20T13:48:51;99397.19;;;13.69;58.77
63554;BME280;49699;48.072;7.800;2022-12-20T13:51:24;99395.25;;;13.60;59.13
63554;BME280;49699;48.072;7.800;2022-12-20T13:53:56;99395.88;;;13.51;59.42
63554;BME280;49699;48.072;7.800;2022-12-20T13:58:50;99390.88;;;13.35;59.73
63554;BME280;49699;48.072;7.800;2022-12-20T14:01:16;99391.09;;;13.32;59.30
63554;BME280;49699;48.072;7.800;2022-12-20T14:03:43;99396.31;;;13.32;59.05
63554;BME280;49699;48.072;7.800;2022-12-20T14:06:10;99390.03;;;13.35;58.16
63554;BME280;49699;48.072;7.800;2022-12-20T14:08:37;99388.28;;;13.35;58.10
63554;BME280;49699;48.072;7.800;2022-12-20T14:11:12;99392.56;;;13.36;57.89
63554;BME280;49699;48.072;7.800;2022-12-20T14:13:38;99395.16;;;13.36;57.45
63554;BME280;49699;48.072;7.800;2022-12-20T14:16:13;99387.53;;;13.33;57.63
63554;BME280;49699;48.072;7.800;2022-12-20T14:18:39;99392.97;;;13.30;57.34
63554;BME280;49699;48.072;7.800;2022-12-20T14:21:05;99388.78;;;13.28;57.22
63554;BME280;49699;48.072;7.800;2022-12-20T14:23:35;99391.22;;;13.18;57.64
63554;BME280;49699;48.072;7.800;2022-12-20T14:26:02;99396.09;;;13.10;57.85
63554;BME280;49699;48.072;7.800;2022-12-20T14:36:26;99394.28;;;12.72;58.46
63554;BME280;49699;48.072;7.800;2022-12-20T14:38:52;99398.28;;;12.65;58.58
63554;BME280;49699;48.072;7.800;2022-12-20T14:41:27;99399.69;;;12.57;58.66
63554;BME280;49699;48.072;7.800;2022-12-20T14:44:35;99395.00;;;12.49;58.78
63554;BME280;49699;48.072;7.800;2022-12-20T14:46:48;99384.22;;;12.41;58.88
63554;BME280;49699;48.072;7.800;2022-12-20T14:49:21;99378.50;;;12.36;58.84
63554;BME280;49699;48.072;7.800;2022-12-20T14:51:47;99383.16;;;12.31;58.92
63554;BME280;49699;48.072;7.800;2022-12-20T14:54:20;99381.88;;;12.24;58.97
63554;BME280;49699;48.072;7.800;2022-12-20T14:56:47;99379.69;;;12.18;59.05
63554;BME280;49699;48.072;7.800;2022-12-20T14:59:15;99393.13;;;12.11;59.34
63554;BME280;49699;48.072;7.800;2022-12-20T15:01:41;99384.75;;;12.06;59.49
63554;BME280;49699;48.072;7.800;2022-12-20T15:04:24;99386.81;;;12.01;59.68
63554;BME280;49699;48.072;7.800;2022-12-20T15:06:54;99388.16;;;11.94;59.84